createdAt,value
2023-04-02T00:02:31.207Z,1.83
2023-04-02T00:05:18.274Z,1.60
2023-04-02T00:08:10.328Z,1.95
2023-04-02T00:11:02.129Z,2.50
2023-04-02T00:13:48.009Z,1.90
2023-04-02T00:16:33.863Z,1.35
2023-04-02T00:19:48.605Z,1.40
2023-04-02T00:22:36.479Z,1.33
2023-04-02T00:25:22.687Z,1.27
2023-04-02T00:28:15.276Z,1.00
2023-04-02T00:31:01.320Z,1.17
2023-04-02T00:33:48.456Z,1.25
2023-04-02T00:36:34.767Z,1.30
2023-04-02T00:39:26.475Z,1.45
2023-04-02T00:42:12.997Z,1.55
2023-04-02T00:44:59.086Z,1.25
2023-04-02T00:47:44.885Z,1.42
2023-04-02T00:50:35.080Z,1.48
2023-04-02T00:53:29.571Z,1.42
2023-04-02T00:56:38.136Z,1.40
2023-04-02T00:59:28.729Z,1.45
2023-04-02T01:02:19.854Z,1.70
2023-04-02T01:05:25.929Z,1.23
2023-04-02T01:08:16.782Z,1.58
2023-04-02T01:11:24.139Z,1.65
2023-04-02T01:14:12.216Z,1.65
2023-04-02T01:17:32.566Z,1.83
2023-04-02T01:20:45.807Z,1.60
2023-04-02T01:23:57.808Z,2.10
2023-04-02T01:26:57.763Z,1.90
2023-04-02T01:29:56.771Z,2.38
2023-04-02T01:32:43.628Z,2.28
2023-04-02T01:35:36.518Z,2.25
2023-04-02T01:38:30.295Z,3.00
2023-04-02T01:41:36.313Z,3.13
2023-04-02T01:44:31.244Z,2.65
2023-04-02T01:47:49.592Z,2.67
2023-04-02T01:50:38.842Z,2.30
2023-04-02T01:53:28.108Z,2.83
2023-04-02T01:56:13.436Z,3.35
2023-04-02T01:58:59.793Z,3.50
2023-04-02T02:01:57.257Z,5.07
2023-04-02T02:04:43.280Z,2.70
2023-04-02T02:07:29.003Z,3.05
2023-04-02T02:10:17.266Z,3.22
2023-04-02T02:13:03.749Z,3.03
2023-04-02T02:15:49.377Z,3.20
2023-04-02T02:18:35.274Z,2.97
2023-04-02T02:21:48.807Z,3.80
2023-04-02T02:24:36.204Z,3.60
2023-04-02T02:27:24.089Z,3.60
2023-04-02T02:30:15.993Z,3.58
2023-04-02T02:33:21.982Z,4.65
2023-04-02T02:36:15.206Z,3.78
2023-04-02T02:39:16.506Z,3.58
2023-04-02T02:42:19.893Z,3.65
2023-04-02T02:45:11.290Z,3.40
2023-04-02T02:47:58.810Z,3.17
2023-04-02T02:50:45.723Z,4.38
2023-04-02T02:53:31.298Z,4.28
2023-04-02T02:56:22.360Z,3.53
2023-04-02T02:59:12.298Z,3.67
2023-04-02T03:01:59.300Z,4.50
2023-04-02T03:04:50.899Z,5.03
2023-04-02T03:07:37.484Z,3.95
2023-04-02T03:10:56.314Z,4.05
2023-04-02T03:13:47.294Z,4.40
2023-04-02T03:16:41.086Z,4.32
2023-04-02T03:19:40.157Z,3.90
2023-04-02T03:22:58.201Z,4.45
2023-04-02T03:25:49.604Z,4.35
2023-04-02T03:28:41.685Z,4.57
2023-04-02T03:31:42.011Z,4.75
2023-04-02T03:34:37.160Z,4.60
2023-04-02T03:38:04.519Z,4.70
2023-04-02T03:41:16.566Z,4.90
2023-04-02T03:44:07.800Z,5.38
2023-04-02T03:46:57.713Z,4.28
2023-04-02T03:49:49.810Z,4.60
2023-04-02T03:52:37.546Z,4.18
2023-04-02T03:55:28.834Z,4.93
2023-04-02T03:58:27.391Z,6.72
2023-04-02T04:01:31.824Z,5.43
2023-04-02T04:04:19.696Z,4.70
2023-04-02T04:07:06.897Z,5.78
2023-04-02T04:10:56.957Z,5.50
2023-04-02T04:13:57.397Z,4.53
2023-04-02T04:16:53.849Z,5.15
2023-04-02T04:19:56.575Z,5.13
2023-04-02T04:22:41.989Z,5.82
2023-04-02T04:25:30.356Z,5.57
2023-04-02T04:28:32.755Z,5.43
2023-04-02T04:31:33.964Z,5.07
2023-04-02T04:34:42.732Z,5.35
2023-04-02T04:37:44.572Z,5.68
2023-04-02T04:40:52.596Z,6.45
2023-04-02T04:43:50.394Z,5.88
2023-04-02T04:46:45.607Z,6.53
2023-04-02T04:49:58.281Z,5.95
2023-04-02T04:52:44.678Z,4.65
2023-04-02T04:55:36.019Z,5.30
2023-04-02T04:58:31.578Z,3.97
2023-04-02T05:01:20.985Z,3.58
2023-04-02T05:04:22.543Z,3.55
2023-04-02T05:07:17.367Z,2.83
2023-04-02T05:10:40.250Z,4.05
2023-04-02T05:13:37.458Z,2.53
2023-04-02T05:16:50.059Z,3.58
2023-04-02T05:20:09.683Z,2.75
2023-04-02T05:22:58.093Z,2.75
2023-04-02T05:26:21.800Z,3.33
2023-04-02T05:29:14.579Z,2.60
2023-04-02T05:32:28.287Z,2.17
2023-04-02T05:35:19.025Z,2.70
2023-04-02T05:38:06.654Z,3.88
2023-04-02T05:41:15.434Z,2.53
2023-04-02T05:44:53.895Z,2.70
2023-04-02T05:47:43.327Z,2.08
2023-04-02T05:50:37.329Z,2.05
2023-04-02T05:53:30.724Z,2.53
2023-04-02T05:59:12.034Z,1.88
2023-04-02T06:02:24.170Z,1.63
2023-04-02T06:05:19.316Z,2.35
2023-04-02T06:08:16.166Z,2.95
2023-04-02T06:11:11.359Z,3.15
2023-04-02T06:13:57.796Z,1.83
2023-04-02T06:16:46.149Z,1.60
2023-04-02T06:19:37.398Z,2.67
2023-04-02T06:22:35.646Z,1.95
2023-04-02T06:25:27.665Z,2.53
2023-04-02T06:28:17.245Z,1.98
2023-04-02T06:31:12.439Z,2.85
2023-04-02T06:33:58.114Z,2.00
2023-04-02T06:36:45.876Z,2.58
2023-04-02T06:39:32.038Z,2.45
2023-04-02T06:42:22.466Z,3.10
2023-04-02T06:45:24.098Z,2.25
2023-04-02T06:48:19.304Z,2.22
2023-04-02T06:51:11.859Z,3.38
2023-04-02T06:53:57.426Z,3.50
2023-04-02T06:56:46.719Z,2.47
2023-04-02T06:59:32.605Z,2.53
2023-04-02T07:02:37.138Z,2.60
2023-04-02T07:05:22.820Z,3.15
2023-04-02T07:08:08.116Z,2.72
2023-04-02T07:10:53.751Z,2.60
2023-04-02T07:13:39.499Z,2.78
2023-04-02T07:16:27.400Z,2.53
2023-04-02T07:19:19.254Z,2.22
2023-04-02T07:22:04.588Z,1.80
2023-04-02T07:24:50.556Z,2.40
2023-04-02T07:27:36.352Z,1.83
2023-04-02T07:30:22.403Z,2.72
2023-04-02T07:33:20.845Z,2.90
2023-04-02T07:36:06.870Z,3.00
2023-04-02T07:38:55.575Z,3.22
2023-04-02T07:41:55.284Z,2.53
2023-04-02T07:44:41.181Z,2.90
2023-04-02T07:47:27.055Z,2.78
2023-04-02T07:50:18.372Z,3.75
2023-04-02T07:53:04.402Z,4.00
2023-04-02T07:55:53.156Z,2.50
2023-04-02T07:58:38.772Z,3.70
2023-04-02T08:01:26.823Z,2.63
2023-04-02T08:04:23.011Z,2.85
2023-04-02T08:07:08.681Z,2.60
2023-04-02T08:09:54.778Z,2.85
2023-04-02T08:12:40.892Z,2.35
2023-04-02T08:15:27.185Z,2.33
2023-04-02T08:18:13.947Z,2.10
2023-04-02T08:20:59.560Z,3.30
2023-04-02T08:23:45.841Z,2.30
2023-04-02T08:26:32.080Z,2.40
2023-04-02T08:29:18.075Z,2.47
2023-04-02T08:32:03.595Z,2.75
2023-04-02T08:34:59.096Z,2.35
2023-04-02T08:37:45.273Z,2.72
2023-04-02T08:40:37.876Z,2.10
2023-04-02T08:44:01.004Z,2.63
2023-04-02T08:47:03.437Z,2.17
2023-04-02T08:50:01.046Z,2.42
2023-04-02T08:52:46.876Z,1.90
2023-04-02T08:55:43.102Z,3.40
2023-04-02T08:58:42.339Z,2.42
2023-04-02T09:01:46.989Z,2.47
2023-04-02T09:04:34.332Z,3.42
2023-04-02T09:07:20.454Z,2.20
2023-04-02T09:10:07.350Z,2.75
2023-04-02T09:12:53.472Z,2.20
2023-04-02T09:15:38.793Z,2.25
2023-04-02T09:18:24.297Z,2.55
2023-04-02T09:21:28.284Z,2.50
2023-04-02T09:24:13.766Z,2.50
2023-04-02T09:26:59.611Z,2.35
2023-04-02T09:29:48.624Z,2.13
2023-04-02T09:32:50.411Z,2.67
2023-04-02T09:35:51.550Z,1.98
2023-04-02T09:38:37.420Z,2.60
2023-04-02T09:41:27.211Z,2.83
2023-04-02T09:44:24.592Z,2.42
2023-04-02T09:47:26.288Z,2.88
2023-04-02T09:50:26.583Z,2.92
2023-04-02T09:53:34.513Z,2.95
2023-04-02T09:56:23.405Z,1.90
2023-04-02T09:59:17.960Z,2.70
2023-04-02T10:02:05.569Z,2.45
2023-04-02T10:04:51.768Z,2.72
2023-04-02T10:07:38.911Z,2.28
2023-04-02T10:10:29.363Z,2.42
2023-04-02T10:13:40.458Z,2.55
2023-04-02T10:16:39.041Z,2.40
2023-04-02T10:19:48.800Z,2.40
2023-04-02T10:22:34.383Z,2.35
2023-04-02T10:25:22.121Z,2.60
2023-04-02T10:28:21.991Z,2.55
2023-04-02T10:31:31.727Z,2.15
2023-04-02T10:34:46.709Z,2.45
2023-04-02T10:37:43.328Z,2.92
2023-04-02T10:40:45.094Z,2.70
2023-04-02T10:43:55.880Z,2.40
2023-04-02T10:46:51.269Z,2.45
2023-04-02T10:49:53.533Z,2.70
2023-04-02T10:52:46.502Z,2.72
2023-04-02T10:55:39.814Z,2.75
2023-04-02T11:01:17.657Z,2.58
2023-04-02T11:04:08.481Z,2.17
2023-04-02T11:07:13.116Z,2.33
2023-04-02T11:10:01.991Z,1.90
2023-04-02T11:12:55.598Z,2.42
2023-04-02T11:15:41.963Z,2.58
2023-04-02T11:18:34.284Z,3.20
2023-04-02T11:21:55.088Z,2.22
2023-04-02T11:24:49.919Z,2.22
2023-04-02T11:27:36.868Z,1.85
2023-04-02T11:30:26.508Z,2.25
2023-04-02T11:33:46.105Z,2.35
2023-04-02T11:36:51.214Z,2.20
2023-04-02T11:42:37.025Z,2.88
2023-04-02T11:45:28.610Z,1.90
2023-04-02T11:48:17.154Z,3.35
2023-04-02T11:51:22.464Z,2.10
2023-04-02T11:54:28.163Z,1.90
2023-04-02T11:57:28.204Z,2.50
2023-04-02T12:00:28.940Z,1.88
2023-04-02T12:03:42.668Z,3.33
2023-04-02T12:06:49.033Z,2.95
2023-04-02T12:09:43.621Z,1.98
2023-04-02T12:12:36.571Z,2.03
2023-04-02T12:15:28.689Z,2.40
2023-04-02T12:18:21.352Z,2.10
2023-04-02T12:21:07.037Z,2.20
2023-04-02T12:23:56.000Z,1.75
2023-04-02T12:26:42.322Z,2.33
2023-04-02T12:29:29.157Z,2.15
2023-04-02T12:32:29.581Z,2.72
2023-04-02T12:35:30.825Z,2.15
2023-04-02T12:38:31.054Z,2.55
2023-04-02T12:41:30.153Z,1.90
2023-04-02T12:44:18.732Z,2.72
2023-04-02T12:47:04.753Z,1.75
2023-04-02T12:49:51.398Z,2.03
2023-04-02T12:52:47.810Z,2.03
2023-04-02T12:55:33.659Z,2.20
2023-04-02T12:58:27.020Z,2.10
2023-04-02T13:01:18.824Z,1.88
2023-04-02T13:04:08.977Z,2.20
2023-04-02T13:06:56.296Z,2.00
2023-04-02T13:09:54.508Z,1.98
2023-04-02T13:12:41.598Z,2.38
2023-04-02T13:15:32.870Z,2.20
2023-04-02T13:18:23.202Z,1.77
2023-04-02T13:21:15.665Z,2.08
2023-04-02T13:24:01.177Z,2.65
2023-04-02T13:26:49.670Z,2.33
2023-04-02T13:29:36.622Z,2.08
2023-04-02T13:32:22.402Z,2.38
2023-04-02T13:35:08.542Z,3.05
2023-04-02T13:37:54.247Z,2.38
2023-04-02T13:40:40.193Z,2.80
2023-04-02T13:43:27.177Z,1.85
2023-04-02T13:46:22.639Z,2.20
2023-04-02T13:49:11.442Z,1.70
2023-04-02T13:52:00.668Z,2.15
2023-04-02T13:54:56.076Z,1.80
2023-04-02T13:57:41.882Z,2.05
2023-04-02T14:00:27.696Z,2.40
2023-04-02T14:03:19.700Z,2.60
2023-04-02T14:06:28.151Z,2.05
2023-04-02T14:09:47.771Z,1.90
2023-04-02T14:13:00.056Z,1.73
2023-04-02T14:16:07.315Z,1.55
2023-04-02T14:19:03.404Z,1.80
2023-04-02T14:22:08.537Z,1.63
2023-04-02T14:25:29.294Z,1.58
2023-04-02T14:28:45.044Z,2.10
2023-04-02T14:31:37.025Z,3.03
2023-04-02T14:34:50.355Z,1.70
2023-04-02T14:38:10.533Z,1.55
2023-04-02T14:41:13.591Z,1.88
2023-04-02T14:44:10.658Z,1.95
2023-04-02T14:47:16.893Z,2.42
2023-04-02T14:50:15.503Z,2.25
2023-04-02T14:53:08.793Z,2.33
2023-04-02T14:55:56.350Z,2.13
2023-04-02T14:58:48.451Z,2.05
2023-04-02T15:01:43.840Z,1.88
2023-04-02T15:04:45.946Z,1.83
2023-04-02T15:07:40.123Z,1.92
2023-04-02T15:10:41.357Z,1.90
2023-04-02T15:13:50.567Z,1.48
2023-04-02T15:16:36.622Z,2.03
2023-04-02T15:19:22.447Z,2.03
2023-04-02T15:22:19.705Z,1.80
2023-04-02T15:25:29.656Z,1.90
2023-04-02T15:28:33.087Z,1.95
2023-04-02T15:31:21.656Z,1.90
2023-04-02T15:34:21.278Z,1.60
2023-04-02T15:37:28.398Z,1.95
2023-04-02T15:40:30.322Z,2.13
2023-04-02T15:43:45.039Z,1.75
2023-04-02T15:46:42.421Z,2.00
2023-04-02T15:49:41.918Z,1.80
2023-04-02T15:52:58.562Z,1.70
2023-04-02T15:56:02.608Z,1.85
2023-04-02T15:59:19.256Z,2.95
2023-04-02T16:02:26.657Z,2.53
2023-04-02T16:05:21.301Z,1.50
2023-04-02T16:08:40.268Z,1.33
2023-04-02T16:11:26.160Z,2.55
2023-04-02T16:14:30.353Z,2.00
2023-04-02T16:17:25.351Z,2.85
2023-04-02T16:20:17.273Z,2.45
2023-04-02T16:23:17.435Z,2.10
2023-04-02T16:26:40.931Z,1.95
2023-04-02T16:29:53.364Z,1.50
2023-04-02T16:32:40.230Z,1.85
2023-04-02T16:35:46.927Z,2.10
2023-04-02T16:38:51.467Z,2.35
2023-04-02T16:42:21.338Z,1.70
2023-04-02T16:45:26.744Z,1.95
2023-04-02T16:48:24.167Z,2.08
2023-04-02T16:51:12.874Z,1.90
2023-04-02T16:54:27.563Z,1.88
2023-04-02T16:57:34.289Z,1.95
2023-04-02T17:00:54.894Z,2.05
2023-04-02T17:04:34.152Z,1.85
2023-04-02T17:07:25.821Z,2.10
2023-04-02T17:10:21.117Z,1.70
2023-04-02T17:13:17.916Z,1.48
2023-04-02T17:16:12.469Z,1.92
2023-04-02T17:18:59.105Z,1.73
2023-04-02T17:21:52.370Z,3.13
2023-04-02T17:24:47.413Z,2.10
2023-04-02T17:27:43.318Z,2.03
2023-04-02T17:30:51.221Z,1.50
2023-04-02T17:33:36.906Z,1.63
2023-04-02T17:36:54.845Z,2.00
2023-04-02T17:39:58.068Z,2.35
2023-04-02T17:42:52.387Z,2.00
2023-04-02T17:45:47.364Z,1.52
2023-04-02T17:48:46.310Z,2.17
2023-04-02T17:51:37.754Z,2.72
2023-04-02T17:54:32.006Z,2.10
2023-04-02T17:57:34.832Z,1.90
2023-04-02T18:01:02.800Z,1.80
2023-04-02T18:04:03.620Z,1.85
2023-04-02T18:07:30.368Z,1.90
2023-04-02T18:10:23.234Z,2.00
2023-04-02T18:13:33.941Z,1.77
2023-04-02T18:16:47.320Z,2.47
2023-04-02T18:19:45.000Z,2.38
2023-04-02T18:22:59.518Z,3.60
2023-04-02T18:26:21.343Z,2.72
2023-04-02T18:29:46.781Z,2.33
2023-04-02T18:32:59.027Z,3.13
2023-04-02T18:36:06.772Z,2.65
2023-04-02T18:39:10.391Z,3.80
2023-04-02T18:42:03.286Z,2.20
2023-04-02T18:44:49.318Z,2.72
2023-04-02T18:48:03.270Z,2.78
2023-04-02T18:50:49.140Z,2.42
2023-04-02T18:53:36.085Z,3.53
2023-04-02T18:56:24.521Z,2.42
2023-04-02T18:59:29.288Z,2.58
2023-04-02T19:02:35.450Z,10.73
2023-04-02T19:05:35.152Z,4.65
2023-04-02T19:08:44.463Z,3.78
2023-04-02T19:11:31.395Z,2.58
2023-04-02T19:14:20.239Z,2.92
2023-04-02T19:17:13.454Z,3.90
2023-04-02T19:20:27.750Z,2.85
2023-04-02T19:23:38.528Z,2.75
2023-04-02T19:26:36.480Z,3.35
2023-04-02T19:29:31.384Z,3.58
2023-04-02T19:32:46.304Z,3.53
2023-04-02T19:35:36.045Z,3.10
2023-04-02T19:38:31.149Z,2.85
2023-04-02T19:41:39.310Z,2.88
2023-04-02T19:44:25.167Z,3.38
2023-04-02T19:47:31.555Z,3.10
2023-04-02T19:50:17.104Z,3.65
2023-04-02T19:53:02.576Z,3.58
2023-04-02T19:55:48.708Z,2.50
2023-04-02T19:58:36.093Z,2.70
2023-04-02T20:01:25.567Z,3.00
2023-04-02T20:04:13.956Z,3.08
2023-04-02T20:07:05.610Z,3.42
2023-04-02T20:09:52.388Z,3.00
2023-04-02T20:12:38.338Z,3.00
2023-04-02T20:15:24.210Z,2.70
2023-04-02T20:18:10.932Z,2.50
2023-04-02T20:20:56.367Z,4.15
2023-04-02T20:23:42.035Z,3.60
2023-04-02T20:26:28.173Z,3.20
2023-04-02T20:29:13.855Z,4.47
2023-04-02T20:31:59.532Z,4.63
2023-04-02T20:34:45.023Z,5.93
2023-04-02T20:37:30.910Z,4.63
2023-04-02T20:40:17.266Z,4.63
2023-04-02T20:43:03.252Z,3.65
2023-04-02T20:45:59.248Z,4.32
2023-04-02T20:48:45.318Z,4.40
2023-04-02T20:51:31.479Z,4.45
2023-04-02T20:54:17.007Z,4.43
2023-04-02T20:57:03.802Z,4.80
2023-04-02T20:59:49.641Z,4.85
2023-04-02T21:02:34.878Z,5.22
2023-04-02T21:05:20.935Z,4.35
2023-04-02T21:08:06.745Z,3.67
2023-04-02T21:10:52.665Z,3.88
2023-04-02T21:13:38.873Z,3.92
2023-04-02T21:16:29.533Z,3.88
2023-04-02T21:19:15.520Z,4.93
2023-04-02T21:22:01.416Z,4.50
2023-04-02T21:24:47.091Z,4.65
2023-04-02T21:27:32.531Z,4.22
2023-04-02T21:30:18.044Z,5.07
2023-04-02T21:33:03.490Z,3.35
2023-04-02T21:35:49.026Z,3.78
2023-04-02T21:38:34.910Z,3.65
2023-04-02T21:41:32.545Z,5.00
2023-04-02T21:44:21.229Z,3.40
2023-04-02T21:47:07.306Z,3.78
2023-04-02T21:49:53.311Z,4.10
2023-04-02T21:52:39.215Z,3.47
2023-04-02T21:55:24.760Z,3.72
2023-04-02T21:58:09.977Z,3.38
2023-04-02T22:00:55.888Z,3.80
2023-04-02T22:03:41.441Z,2.97
2023-04-02T22:06:29.339Z,2.90
2023-04-02T22:09:18.069Z,3.40
2023-04-02T22:12:06.429Z,3.28
2023-04-02T22:14:51.859Z,3.00
2023-04-02T22:17:37.262Z,2.22
2023-04-02T22:20:22.961Z,2.10
2023-04-02T22:23:08.491Z,2.50
2023-04-02T22:25:55.899Z,3.22
2023-04-02T22:28:42.046Z,2.83
2023-04-02T22:31:30.444Z,2.75
2023-04-02T22:34:16.437Z,3.13
2023-04-02T22:37:01.975Z,2.35
2023-04-02T22:39:47.723Z,2.22
2023-04-02T22:42:34.614Z,2.50
2023-04-02T22:45:21.302Z,2.17
2023-04-02T22:48:07.211Z,2.17
2023-04-02T22:50:52.956Z,1.92
2023-04-02T22:53:39.444Z,2.92
2023-04-02T22:56:28.839Z,1.77
2023-04-02T22:59:14.771Z,3.03
2023-04-02T23:02:00.554Z,1.65
2023-04-02T23:04:46.136Z,1.80
2023-04-02T23:07:31.828Z,2.85
2023-04-02T23:10:17.497Z,2.13
2023-04-02T23:13:03.090Z,1.90
2023-04-02T23:15:48.675Z,3.63
2023-04-02T23:18:35.758Z,1.42
2023-04-02T23:21:22.057Z,1.70
2023-04-02T23:24:07.682Z,2.00
2023-04-02T23:26:53.098Z,1.60
2023-04-02T23:29:38.747Z,2.00
2023-04-02T23:32:24.654Z,3.40
2023-04-02T23:35:10.660Z,1.60
2023-04-02T23:37:55.931Z,1.70
2023-04-02T23:40:41.516Z,1.98
2023-04-02T23:43:27.813Z,1.98
2023-04-02T23:46:13.062Z,1.88
2023-04-02T23:48:59.527Z,2.13
2023-04-02T23:51:45.834Z,2.53
2023-04-02T23:54:31.077Z,1.40
2023-04-02T23:57:17.222Z,2.05
